createdAt,value
2018-08-23T00:01:12.215Z,41.30
2018-08-23T00:03:40.524Z,42.80
2018-08-23T00:06:08.679Z,40.60
2018-08-23T00:08:37.689Z,41.20
2018-08-23T00:11:05.959Z,41.20
2018-08-23T00:13:34.984Z,44.60
2018-08-23T00:16:03.245Z,44.60
2018-08-23T00:18:31.492Z,43.20
2018-08-23T00:20:59.738Z,41.70
2018-08-23T00:23:27.994Z,41.10
2018-08-23T00:25:56.192Z,41.70
2018-08-23T00:28:24.467Z,41.00
2018-08-23T00:30:52.712Z,41.20
2018-08-23T00:33:20.963Z,41.00
2018-08-23T00:35:49.990Z,41.00
2018-08-23T00:38:18.200Z,41.00
2018-08-23T00:40:46.418Z,40.90
2018-08-23T00:43:14.634Z,41.40
2018-08-23T00:45:42.836Z,41.40
2018-08-23T00:48:11.064Z,41.40
2018-08-23T00:50:39.276Z,40.90
2018-08-23T00:53:07.550Z,40.90
2018-08-23T00:55:35.750Z,40.70
2018-08-23T00:58:04.736Z,42.20
2018-08-23T01:00:32.944Z,42.10
2018-08-23T01:03:01.199Z,41.70
2018-08-23T01:05:29.422Z,42.30
2018-08-23T01:07:57.674Z,41.60
2018-08-23T01:10:25.906Z,42.00
2018-08-23T01:12:54.164Z,41.80
2018-08-23T01:15:22.368Z,42.80
2018-08-23T01:17:50.603Z,42.40
2018-08-23T01:20:18.850Z,42.10
2018-08-23T01:22:47.878Z,41.90
2018-08-23T01:25:16.132Z,41.90
2018-08-23T01:27:44.344Z,43.60
2018-08-23T01:30:12.604Z,45.00
2018-08-23T01:32:40.823Z,44.80
2018-08-23T01:35:09.032Z,48.90
2018-08-23T01:37:37.276Z,43.90
2018-08-23T01:40:05.536Z,42.90
2018-08-23T01:42:33.754Z,43.40
2018-08-23T01:45:01.966Z,42.70
2018-08-23T01:47:30.249Z,44.60
2018-08-23T01:49:58.496Z,43.20
2018-08-23T01:52:26.698Z,42.60
2018-08-23T01:54:54.960Z,42.40
2018-08-23T01:57:23.197Z,42.10
2018-08-23T01:59:52.193Z,42.30
2018-08-23T02:02:21.231Z,42.20
2018-08-23T02:04:49.469Z,42.30
2018-08-23T02:07:17.718Z,43.80
2018-08-23T02:09:45.963Z,42.50
2018-08-23T02:12:14.240Z,43.60
2018-08-23T02:14:42.440Z,42.70
2018-08-23T02:17:10.647Z,42.40
2018-08-23T02:19:39.686Z,43.20
2018-08-23T02:22:07.883Z,43.20
2018-08-23T02:24:36.109Z,42.90
2018-08-23T02:27:04.321Z,43.10
2018-08-23T02:29:32.549Z,44.80
2018-08-23T02:32:01.520Z,45.10
2018-08-23T02:34:29.750Z,45.10
2018-08-23T02:36:57.999Z,45.60
2018-08-23T02:39:26.964Z,44.90
2018-08-23T02:41:55.245Z,44.80
2018-08-23T02:44:23.491Z,44.20
2018-08-23T02:46:51.752Z,45.30
2018-08-23T02:49:20.000Z,43.60
2018-08-23T02:51:48.977Z,43.60
2018-08-23T02:54:17.181Z,43.60
2018-08-23T02:56:45.448Z,43.40
2018-08-23T02:59:14.433Z,43.30
2018-08-23T03:01:43.409Z,44.00
2018-08-23T03:04:11.629Z,44.60
2018-08-23T03:06:39.827Z,48.50
2018-08-23T03:09:08.105Z,44.90
2018-08-23T03:11:36.358Z,44.30
2018-08-23T03:14:04.597Z,44.60
2018-08-23T03:16:32.822Z,46.60
2018-08-23T03:19:01.035Z,44.20
2018-08-23T03:21:29.300Z,44.40
2018-08-23T03:23:57.515Z,44.60
2018-08-23T03:26:26.499Z,46.60
2018-08-23T03:28:54.725Z,46.90
2018-08-23T03:31:22.939Z,45.60
2018-08-23T03:33:51.173Z,47.20
2018-08-23T03:36:19.420Z,48.90
2018-08-23T03:38:48.427Z,45.10
2018-08-23T03:41:16.687Z,45.00
2018-08-23T03:43:44.935Z,45.30
2018-08-23T03:46:13.187Z,45.40
2018-08-23T03:48:41.431Z,44.80
2018-08-23T03:51:10.407Z,44.50
2018-08-23T03:53:39.395Z,45.40
2018-08-23T03:56:07.655Z,45.40
2018-08-23T03:58:35.857Z,45.30
2018-08-23T04:01:04.845Z,44.40
2018-08-23T04:03:33.820Z,44.00
2018-08-23T04:06:02.088Z,44.10
2018-08-23T04:08:30.289Z,44.10
2018-08-23T04:10:59.332Z,44.20
2018-08-23T04:13:27.539Z,44.20
2018-08-23T04:15:55.793Z,44.20
2018-08-23T04:18:24.095Z,43.90
2018-08-23T04:20:52.304Z,43.80
2018-08-23T04:23:21.314Z,43.90
2018-08-23T04:25:49.514Z,43.90
2018-08-23T04:28:17.802Z,43.40
2018-08-23T04:30:46.809Z,45.20
2018-08-23T04:33:15.020Z,45.10
2018-08-23T04:35:44.014Z,54.50
2018-08-23T04:38:12.234Z,54.50
2018-08-23T04:40:40.526Z,47.30
2018-08-23T04:43:08.718Z,45.30
2018-08-23T04:45:36.932Z,44.70
2018-08-23T04:48:05.178Z,45.00
2018-08-23T04:50:33.410Z,44.70
2018-08-23T04:53:01.692Z,45.00
2018-08-23T04:55:29.894Z,56.60
2018-08-23T04:57:58.117Z,46.80
2018-08-23T05:00:26.334Z,46.20
2018-08-23T05:02:54.594Z,49.00
2018-08-23T05:05:22.804Z,48.60
2018-08-23T05:07:51.410Z,46.80
2018-08-23T05:10:21.454Z,45.80
2018-08-23T05:12:49.708Z,45.80
2018-08-23T05:15:18.696Z,45.90
2018-08-23T05:17:46.975Z,45.80
2018-08-23T05:20:16.766Z,45.90
2018-08-23T05:22:44.979Z,45.90
2018-08-23T05:25:13.221Z,45.90
2018-08-23T05:27:41.513Z,45.80
2018-08-23T05:30:09.748Z,46.40
2018-08-23T05:32:37.984Z,45.80
2018-08-23T05:35:06.250Z,45.90
2018-08-23T05:37:35.284Z,45.90
2018-08-23T05:40:03.479Z,45.90
2018-08-23T05:42:31.754Z,46.00
2018-08-23T05:44:59.995Z,45.80
2018-08-23T05:47:28.286Z,46.30
2018-08-23T05:49:56.495Z,46.00
2018-08-23T05:52:24.777Z,46.10
2018-08-23T05:54:52.969Z,45.90
2018-08-23T05:57:21.969Z,46.00
2018-08-23T05:59:50.997Z,46.50
2018-08-23T06:02:19.215Z,45.90
2018-08-23T06:04:47.403Z,45.70
2018-08-23T06:07:16.451Z,45.90
2018-08-23T06:09:44.660Z,45.90
2018-08-23T06:12:12.863Z,45.80
2018-08-23T06:14:41.895Z,45.60
2018-08-23T06:17:10.126Z,45.60
2018-08-23T06:19:39.191Z,48.70
2018-08-23T06:22:07.402Z,48.60
2018-08-23T06:24:35.620Z,45.60
2018-08-23T06:27:03.852Z,45.50
2018-08-23T06:29:32.153Z,45.30
2018-08-23T06:32:00.418Z,45.50
2018-08-23T06:34:29.385Z,45.40
2018-08-23T06:36:57.643Z,45.40
2018-08-23T06:39:25.870Z,45.20
2018-08-23T06:41:54.926Z,47.10
2018-08-23T06:44:23.244Z,47.30
2018-08-23T06:46:52.204Z,45.40
2018-08-23T06:49:20.481Z,45.50
2018-08-23T06:51:48.685Z,46.30
2018-08-23T06:54:16.912Z,47.10
2018-08-23T06:56:45.175Z,47.20
2018-08-23T06:59:13.413Z,48.30
2018-08-23T07:01:42.381Z,49.70
2018-08-23T07:04:10.585Z,49.60
2018-08-23T07:06:38.824Z,49.20
2018-08-23T07:09:07.074Z,48.30
2018-08-23T07:11:35.327Z,47.20
2018-08-23T07:14:03.538Z,50.40
2018-08-23T07:16:31.770Z,48.60
2018-08-23T07:18:59.977Z,48.50
2018-08-23T07:21:28.180Z,48.30
2018-08-23T07:23:56.433Z,49.40
2018-08-23T07:26:24.719Z,47.20
2018-08-23T07:28:52.860Z,49.60
2018-08-23T07:31:21.114Z,47.60
2018-08-23T07:33:49.372Z,47.30
2018-08-23T07:36:19.110Z,48.20
2018-08-23T07:38:48.140Z,47.60
2018-08-23T07:41:16.402Z,47.50
2018-08-23T07:43:44.649Z,48.00
2018-08-23T07:46:12.840Z,48.10
2018-08-23T07:48:41.134Z,49.50
2018-08-23T07:51:09.385Z,50.30
2018-08-23T07:53:38.382Z,48.50
2018-08-23T07:56:07.355Z,49.60
2018-08-23T07:58:35.579Z,49.70
2018-08-23T08:01:03.844Z,50.10
2018-08-23T08:03:32.098Z,50.40
2018-08-23T08:06:01.140Z,50.20
2018-08-23T08:08:29.351Z,50.20
2018-08-23T08:10:57.615Z,49.90
2018-08-23T08:13:25.866Z,49.10
2018-08-23T08:15:55.752Z,49.00
2018-08-23T08:18:24.023Z,48.60
2018-08-23T08:20:53.058Z,48.80
2018-08-23T08:23:21.993Z,48.30
2018-08-23T08:25:50.197Z,48.40
2018-08-23T08:28:18.459Z,49.10
2018-08-23T08:30:47.494Z,48.40
2018-08-23T08:33:15.760Z,48.30
2018-08-23T08:35:44.023Z,48.50
2018-08-23T08:38:12.304Z,48.00
2018-08-23T08:40:40.548Z,48.70
2018-08-23T08:43:08.793Z,47.70
2018-08-23T08:45:37.039Z,47.80
2018-08-23T08:48:05.265Z,47.50
2018-08-23T08:50:33.560Z,47.90
2018-08-23T08:53:01.792Z,47.60
2018-08-23T08:55:30.069Z,47.50
2018-08-23T08:57:58.312Z,47.50
2018-08-23T09:00:26.590Z,47.70
2018-08-23T09:02:55.592Z,47.20
2018-08-23T09:05:23.851Z,47.20
2018-08-23T09:07:52.881Z,46.30
2018-08-23T09:10:21.088Z,46.20
2018-08-23T09:12:50.382Z,45.70
2018-08-23T09:15:18.644Z,45.70
2018-08-23T09:17:46.914Z,45.50
2018-08-23T09:20:15.164Z,45.90
2018-08-23T09:22:43.384Z,46.00
2018-08-23T09:25:11.694Z,46.30
2018-08-23T09:27:39.954Z,45.00
2018-08-23T09:30:08.192Z,44.60
2018-08-23T09:32:36.410Z,45.40
2018-08-23T09:35:04.677Z,45.30
2018-08-23T09:37:32.832Z,45.50
2018-08-23T09:40:01.055Z,45.00
2018-08-23T09:42:30.062Z,45.20
2018-08-23T09:45:01.946Z,45.10
2018-08-23T09:47:30.241Z,45.20
2018-08-23T09:49:58.523Z,45.10
2018-08-23T09:52:26.737Z,45.40
2018-08-23T09:54:54.977Z,45.30
2018-08-23T09:57:23.189Z,45.20
2018-08-23T09:59:52.204Z,45.20
2018-08-23T10:02:35.320Z,45.10
2018-08-23T10:05:04.311Z,45.10
2018-08-23T10:07:33.359Z,45.00
2018-08-23T10:10:01.573Z,45.00
2018-08-23T10:12:46.424Z,44.00
2018-08-23T10:15:29.529Z,44.00
2018-08-23T10:18:14.468Z,44.30
2018-08-23T10:20:48.494Z,44.10
2018-08-23T10:23:16.771Z,43.90
2018-08-23T10:25:45.014Z,44.60
2018-08-23T10:28:14.009Z,44.60
2018-08-23T10:30:42.973Z,44.50
2018-08-23T10:33:11.201Z,44.50
2018-08-23T10:35:39.422Z,44.50
2018-08-23T10:38:07.664Z,43.90
2018-08-23T10:40:35.904Z,44.50
2018-08-23T10:43:04.940Z,44.00
2018-08-23T10:45:33.189Z,44.00
2018-08-23T10:48:01.448Z,43.80
2018-08-23T10:50:30.468Z,44.30
2018-08-23T10:52:59.419Z,44.10
2018-08-23T10:55:28.452Z,45.10
2018-08-23T10:57:56.721Z,45.10
2018-08-23T11:00:24.969Z,45.60
2018-08-23T11:02:53.957Z,45.80
2018-08-23T11:05:22.172Z,45.70
2018-08-23T11:07:50.461Z,46.10
2018-08-23T11:10:24.363Z,46.60
2018-08-23T11:12:52.643Z,46.50
2018-08-23T11:15:20.841Z,46.90
2018-08-23T11:18:03.997Z,46.50
2018-08-23T11:20:32.248Z,47.80
2018-08-23T11:23:00.503Z,49.00
2018-08-23T11:25:29.469Z,49.20
2018-08-23T11:27:58.451Z,49.40
2018-08-23T11:30:27.427Z,49.20
2018-08-23T11:32:55.705Z,49.20
2018-08-23T11:35:23.938Z,50.30
2018-08-23T11:37:52.169Z,49.70
2018-08-23T11:40:21.149Z,50.60
2018-08-23T11:42:49.463Z,50.60
2018-08-23T11:45:17.645Z,50.20
2018-08-23T11:47:46.662Z,50.80
2018-08-23T11:50:14.893Z,50.70
2018-08-23T11:52:43.909Z,50.80
2018-08-23T11:55:12.131Z,50.70
2018-08-23T11:57:40.377Z,50.70
2018-08-23T12:00:08.621Z,50.50
2018-08-23T12:02:37.653Z,50.20
2018-08-23T12:05:05.895Z,50.30
2018-08-23T12:07:34.171Z,50.30
2018-08-23T12:10:02.465Z,49.60
2018-08-23T12:12:30.671Z,49.30
2018-08-23T12:14:58.889Z,49.00
2018-08-23T12:17:27.145Z,48.80
2018-08-23T12:19:55.386Z,49.00
2018-08-23T12:22:23.629Z,49.00
2018-08-23T12:24:52.619Z,48.90
2018-08-23T12:27:21.599Z,48.90
2018-08-23T12:29:49.870Z,48.90
2018-08-23T12:32:18.091Z,48.40
2018-08-23T12:34:46.365Z,48.40
2018-08-23T12:37:14.579Z,48.20
2018-08-23T12:39:58.485Z,48.10
2018-08-23T12:42:32.396Z,47.80
2018-08-23T12:45:00.623Z,47.50
2018-08-23T12:47:28.831Z,47.80
2018-08-23T12:49:57.859Z,48.20
2018-08-23T12:52:26.126Z,48.20
2018-08-23T12:54:54.374Z,48.00
2018-08-23T12:57:23.396Z,47.90
2018-08-23T12:59:51.610Z,47.50
2018-08-23T13:02:20.217Z,47.90
2018-08-23T13:04:48.424Z,46.60
2018-08-23T13:07:16.697Z,47.30
2018-08-23T13:09:45.697Z,45.20
2018-08-23T13:12:13.933Z,45.20
2018-08-23T13:14:42.212Z,46.30
2018-08-23T13:17:10.505Z,46.50
2018-08-23T13:19:38.737Z,46.60
2018-08-23T13:22:06.956Z,45.00
2018-08-23T13:24:35.938Z,45.30
2018-08-23T13:27:04.606Z,45.30
2018-08-23T13:29:33.589Z,40.30
2018-08-23T13:32:01.864Z,40.40
2018-08-23T13:34:30.115Z,41.90
2018-08-23T13:36:58.363Z,40.30
2018-08-23T13:39:27.372Z,40.50
2018-08-23T13:41:56.420Z,43.50
2018-08-23T13:44:24.620Z,43.40
2018-08-23T13:46:52.826Z,41.40
2018-08-23T13:49:21.104Z,43.00
2018-08-23T13:51:49.304Z,40.70
2018-08-23T13:54:17.550Z,42.20
2018-08-23T13:56:45.780Z,42.70
2018-08-23T13:59:14.082Z,41.30
2018-08-23T14:01:42.344Z,42.50
2018-08-23T14:04:10.552Z,42.40
2018-08-23T14:06:38.847Z,42.70
2018-08-23T14:09:07.119Z,43.60
2018-08-23T14:11:35.348Z,42.90
2018-08-23T14:14:03.623Z,42.60
2018-08-23T14:16:31.845Z,42.80
2018-08-23T14:19:00.098Z,42.10
2018-08-23T14:21:29.089Z,43.30
2018-08-23T14:23:58.123Z,40.60
2018-08-23T14:26:26.359Z,40.50
2018-08-23T14:28:54.631Z,42.80
2018-08-23T14:31:23.149Z,43.40
2018-08-23T14:33:51.401Z,41.10
2018-08-23T14:36:20.397Z,42.00
2018-08-23T14:38:49.431Z,41.60
2018-08-23T14:41:17.623Z,41.40
2018-08-23T14:43:45.837Z,41.60
2018-08-23T14:46:14.841Z,42.50
2018-08-23T14:48:43.863Z,42.30
2018-08-23T14:51:12.072Z,42.40
2018-08-23T14:53:40.323Z,41.80
2018-08-23T14:56:08.542Z,42.40
2018-08-23T14:58:36.825Z,40.90
2018-08-23T15:01:05.123Z,42.50
2018-08-23T15:03:33.353Z,44.50
2018-08-23T15:06:01.695Z,45.00
2018-08-23T15:08:29.964Z,44.70
2018-08-23T15:10:58.257Z,43.80
2018-08-23T15:13:26.483Z,43.10
2018-08-23T15:15:54.761Z,42.00
2018-08-23T15:18:23.001Z,42.50
2018-08-23T15:20:51.310Z,42.70
2018-08-23T15:23:20.430Z,41.50
2018-08-23T15:25:48.687Z,36.20
2018-08-23T15:28:16.968Z,41.50
2018-08-23T15:30:45.186Z,41.60
2018-08-23T15:33:13.442Z,41.80
2018-08-23T15:35:42.439Z,39.60
2018-08-23T15:38:13.173Z,39.60
2018-08-23T15:40:41.459Z,40.60
2018-08-23T15:43:09.709Z,40.40
2018-08-23T15:45:37.948Z,38.60
2018-08-23T15:48:06.311Z,40.10
2018-08-23T15:50:35.298Z,36.80
2018-08-23T15:53:03.545Z,36.50
2018-08-23T15:55:32.840Z,39.00
2018-08-23T15:58:00.807Z,39.00
2018-08-23T16:00:29.913Z,39.50
2018-08-23T16:02:58.163Z,39.50
2018-08-23T16:05:26.434Z,38.70
2018-08-23T16:07:54.670Z,40.30
2018-08-23T16:10:23.102Z,39.30
2018-08-23T16:12:51.310Z,40.50
2018-08-23T16:15:19.574Z,40.00
2018-08-23T16:18:08.266Z,40.30
2018-08-23T16:20:52.330Z,40.40
2018-08-23T16:23:20.614Z,40.40
2018-08-23T16:25:48.864Z,40.40
2018-08-23T16:28:17.134Z,39.30
2018-08-23T16:30:45.389Z,40.10
2018-08-23T16:33:14.416Z,40.60
2018-08-23T16:35:42.620Z,40.60
2018-08-23T16:38:10.891Z,40.20
2018-08-23T16:40:39.145Z,40.70
2018-08-23T16:43:07.354Z,40.50
2018-08-23T16:45:35.640Z,40.30
2018-08-23T16:48:03.843Z,40.40
2018-08-23T16:50:32.839Z,40.40
2018-08-23T16:53:01.939Z,40.50
2018-08-23T16:55:30.109Z,40.50
2018-08-23T16:57:59.159Z,40.80
2018-08-23T17:00:27.367Z,40.80
2018-08-23T17:02:56.353Z,41.20
2018-08-23T17:05:24.574Z,41.30
2018-08-23T17:07:52.793Z,41.40
2018-08-23T17:10:21.087Z,41.80
2018-08-23T17:12:49.342Z,41.90
2018-08-23T17:15:18.356Z,42.80
2018-08-23T17:17:46.652Z,42.70
2018-08-23T17:20:14.869Z,43.70
2018-08-23T17:22:43.105Z,44.00
2018-08-23T17:25:12.115Z,45.40
2018-08-23T17:27:40.288Z,45.40
2018-08-23T17:30:08.573Z,46.70
2018-08-23T17:32:37.712Z,45.70
2018-08-23T17:35:06.708Z,47.20
2018-08-23T17:37:34.970Z,47.10
2018-08-23T17:40:03.227Z,47.20
2018-08-23T17:42:31.492Z,46.80
2018-08-23T17:44:59.747Z,49.20
2018-08-23T17:47:28.768Z,47.80
2018-08-23T17:49:56.981Z,47.70
2018-08-23T17:52:25.260Z,47.10
2018-08-23T17:54:53.501Z,48.40
2018-08-23T17:57:21.727Z,50.40
2018-08-23T17:59:49.994Z,50.00
2018-08-23T18:02:18.248Z,50.90
2018-08-23T18:04:46.472Z,49.30
2018-08-23T18:07:15.449Z,51.90
2018-08-23T18:09:43.718Z,52.00
2018-08-23T18:12:11.961Z,50.10
2018-08-23T18:14:40.223Z,50.50
2018-08-23T18:17:08.489Z,51.60
2018-08-23T18:19:38.412Z,47.70
2018-08-23T18:22:06.666Z,47.60
2018-08-23T18:24:35.679Z,46.60
2018-08-23T18:27:04.677Z,46.30
2018-08-23T18:29:32.933Z,46.30
2018-08-23T18:32:01.976Z,48.00
2018-08-23T18:34:30.176Z,49.00
2018-08-23T18:36:58.431Z,51.00
2018-08-23T18:39:26.712Z,48.10
2018-08-23T18:41:54.992Z,51.70
2018-08-23T18:44:23.209Z,49.30
2018-08-23T18:46:52.239Z,47.70
2018-08-23T18:49:20.585Z,47.70
2018-08-23T18:51:48.834Z,51.40
2018-08-23T18:54:17.467Z,48.80
2018-08-23T18:56:46.437Z,53.70
2018-08-23T18:59:15.499Z,52.40
2018-08-23T19:01:43.779Z,52.30
2018-08-23T19:04:12.026Z,50.70
2018-08-23T19:06:40.296Z,53.90
2018-08-23T19:09:08.504Z,53.90
2018-08-23T19:11:36.730Z,54.10
2018-08-23T19:14:05.826Z,48.80
2018-08-23T19:16:35.609Z,50.70
2018-08-23T19:19:04.527Z,50.70
2018-08-23T19:21:32.836Z,51.70
2018-08-23T19:24:01.089Z,48.30
2018-08-23T19:26:29.312Z,47.80
2018-08-23T19:28:57.567Z,48.70
2018-08-23T19:31:25.830Z,51.80
2018-08-23T19:33:54.818Z,48.70
2018-08-23T19:36:23.103Z,48.60
2018-08-23T19:38:51.309Z,49.00
2018-08-23T19:41:19.590Z,49.50
2018-08-23T19:43:47.844Z,48.50
2018-08-23T19:46:16.041Z,49.30
2018-08-23T19:48:44.327Z,48.40
2018-08-23T19:51:12.643Z,52.40
2018-08-23T19:53:41.658Z,49.40
2018-08-23T19:56:09.909Z,49.30
2018-08-23T19:58:38.934Z,50.70
2018-08-23T20:01:07.183Z,50.70
2018-08-23T20:03:36.246Z,49.80
2018-08-23T20:06:04.457Z,50.10
2018-08-23T20:08:32.671Z,49.10
2018-08-23T20:11:01.223Z,48.20
2018-08-23T20:13:30.217Z,48.60
2018-08-23T20:15:59.267Z,53.00
2018-08-23T20:18:27.504Z,53.00
2018-08-23T20:20:55.809Z,53.40
2018-08-23T20:23:24.063Z,53.50
2018-08-23T20:25:52.275Z,52.10
2018-08-23T20:28:20.517Z,53.20
2018-08-23T20:30:48.748Z,51.60
2018-08-23T20:33:16.969Z,49.30
2018-08-23T20:35:45.185Z,50.50
2018-08-23T20:38:13.431Z,50.20
2018-08-23T20:40:41.664Z,52.00
2018-08-23T20:43:10.648Z,48.50
2018-08-23T20:45:39.741Z,48.40
2018-08-23T20:48:07.880Z,48.40
2018-08-23T20:50:36.168Z,48.30
2018-08-23T20:53:04.394Z,52.10
2018-08-23T20:55:33.403Z,49.80
2018-08-23T20:58:01.660Z,49.80
2018-08-23T21:00:30.705Z,48.40
2018-08-23T21:02:58.920Z,48.40
2018-08-23T21:05:27.958Z,54.30
2018-08-23T21:07:56.678Z,54.80
2018-08-23T21:10:24.948Z,53.50
2018-08-23T21:12:53.334Z,59.00
2018-08-23T21:15:21.535Z,57.90
2018-08-23T21:17:50.520Z,58.20
2018-08-23T21:20:18.750Z,58.00
2018-08-23T21:22:47.012Z,57.00
2018-08-23T21:25:15.298Z,58.60
2018-08-23T21:27:43.568Z,59.70
2018-08-23T21:30:11.826Z,58.20
2018-08-23T21:32:40.841Z,58.10
2018-08-23T21:35:09.093Z,58.00
2018-08-23T21:37:38.092Z,60.70
2018-08-23T21:40:06.350Z,60.70
2018-08-23T21:42:34.627Z,54.80
2018-08-23T21:45:02.859Z,53.90
2018-08-23T21:47:31.100Z,52.80
2018-08-23T21:50:00.121Z,58.40
2018-08-23T21:52:29.093Z,58.50
2018-08-23T21:54:58.123Z,57.30
2018-08-23T21:57:26.358Z,57.40
2018-08-23T21:59:55.877Z,56.80
2018-08-23T22:02:24.091Z,56.60
2018-08-23T22:04:52.369Z,55.10
2018-08-23T22:07:20.570Z,59.30
2018-08-23T22:09:48.903Z,58.70
2018-08-23T22:12:18.725Z,57.30
2018-08-23T22:14:46.985Z,56.80
2018-08-23T22:17:26.172Z,59.00
2018-08-23T22:19:54.404Z,58.00
2018-08-23T22:22:22.615Z,54.00
2018-08-23T22:24:50.874Z,54.10
2018-08-23T22:27:19.158Z,57.80
2018-08-23T22:29:47.404Z,54.40
2018-08-23T22:32:15.647Z,58.00
2018-08-23T22:34:44.676Z,58.80
2018-08-23T22:37:12.947Z,58.70
2018-08-23T22:39:41.335Z,57.20
2018-08-23T22:42:09.474Z,56.30
2018-08-23T22:44:38.458Z,55.90
2018-08-23T22:47:07.508Z,57.40
2018-08-23T22:49:35.737Z,58.10
2018-08-23T22:52:03.957Z,58.20
2018-08-23T22:54:32.284Z,59.70
2018-08-23T22:57:01.262Z,55.20
2018-08-23T22:59:29.532Z,55.10
2018-08-23T23:01:57.764Z,54.70
2018-08-23T23:04:26.048Z,57.30
2018-08-23T23:06:54.302Z,54.00
2018-08-23T23:09:23.333Z,54.20
2018-08-23T23:11:51.609Z,54.30
2018-08-23T23:14:19.896Z,58.70
2018-08-23T23:16:48.146Z,55.70
2018-08-23T23:19:16.394Z,59.40
2018-08-23T23:21:45.427Z,56.90
2018-08-23T23:24:13.697Z,56.80
2018-08-23T23:26:42.673Z,60.70
2018-08-23T23:29:10.944Z,61.50
2018-08-23T23:31:39.243Z,58.80
2018-08-23T23:34:07.492Z,57.60
2018-08-23T23:36:35.705Z,59.20
2018-08-23T23:39:03.919Z,57.20
2018-08-23T23:41:32.183Z,56.00
2018-08-23T23:44:00.447Z,57.20
2018-08-23T23:46:28.685Z,60.70
2018-08-23T23:48:56.988Z,59.50
2018-08-23T23:51:25.244Z,60.30
2018-08-23T23:53:54.229Z,58.10
2018-08-23T23:56:23.324Z,58.10
2018-08-23T23:58:51.517Z,58.00
